Time;durP1;ratioP1;P1;durP2;ratioP2;P2;SDS_P1;SDS_P2;PMS_P1;PMS_P2;Temp;Humidity;BMP_temperature;BMP_pressure;BME280_temperature;BME280_humidity;BME280_pressure;Samples;Min_cycle;Max_cycle;Signal;HPM_P1;HPM_P2
2022/08/20 00:00:14;;;;;;;7.93;2.35;;;14.90;99.90;;;;;;5071463;28;20167;-49
2022/08/20 00:02:46;;;;;;;9.00;2.92;;;14.90;99.90;;;;;;5071877;28;20028;-44
2022/08/20 00:05:13;;;;;;;8.85;2.80;;;14.90;99.90;;;;;;5071579;28;20032;-44
2022/08/20 00:07:39;;;;;;;7.65;2.95;;;14.90;99.90;;;;;;5071950;28;20078;-44
2022/08/20 00:10:07;;;;;;;8.18;2.88;;;14.80;99.90;;;;;;5071456;28;20028;-46
2022/08/20 00:12:34;;;;;;;5.78;2.42;;;14.80;99.90;;;;;;5071002;28;20475;-46
2022/08/20 00:15:01;;;;;;;6.78;2.05;;;14.80;99.90;;;;;;5070741;28;20234;-48
2022/08/20 00:17:33;;;;;;;5.90;1.92;;;14.80;99.90;;;;;;5071149;28;20115;-44
2022/08/20 00:19:59;;;;;;;6.70;2.00;;;14.70;99.90;;;;;;5071484;28;20016;-49
2022/08/20 00:22:27;;;;;;;5.55;1.70;;;14.70;99.90;;;;;;5071086;28;20027;-45
2022/08/20 00:24:52;;;;;;;5.55;1.65;;;14.70;99.90;;;;;;5071179;28;20044;-46
2022/08/20 00:27:18;;;;;;;5.15;1.90;;;14.70;99.90;;;;;;5071039;28;20453;-48
2022/08/20 00:29:43;;;;;;;7.90;1.73;;;14.70;99.90;;;;;;5071271;28;20013;-47
2022/08/20 00:32:09;;;;;;;6.18;1.80;;;14.70;99.90;;;;;;5070586;28;20048;-45
2022/08/20 00:34:35;;;;;;;6.32;1.95;;;14.70;99.90;;;;;;5071007;28;20037;-46
2022/08/20 00:37:00;;;;;;;7.88;1.75;;;14.60;99.90;;;;;;5071032;28;20385;-44
2022/08/20 00:39:26;;;;;;;5.95;1.90;;;14.60;99.90;;;;;;5070951;28;20433;-50
2022/08/20 00:41:52;;;;;;;6.70;1.80;;;14.60;99.90;;;;;;5070945;28;20028;-52
2022/08/20 00:44:21;;;;;;;4.82;1.60;;;14.60;99.90;;;;;;5070669;28;20109;-46
2022/08/20 00:46:47;;;;;;;8.75;1.80;;;14.60;99.90;;;;;;5070866;28;20027;-44
2022/08/20 00:49:24;;;;;;;8.45;1.70;;;14.50;99.90;;;;;;5071034;28;20028;-49
2022/08/20 00:52:16;;;;;;;5.47;1.70;;;14.50;99.90;;;;;;5070967;28;20021;-44
2022/08/20 00:54:46;;;;;;;5.22;1.73;;;14.50;99.90;;;;;;5070485;28;20024;-46
2022/08/20 00:57:29;;;;;;;4.90;1.67;;;14.50;99.90;;;;;;5067691;28;20033;-53
2022/08/20 00:59:57;;;;;;;7.40;2.08;;;14.50;99.90;;;;;;5069482;28;20064;-50
2022/08/20 01:02:27;;;;;;;5.57;2.13;;;14.40;99.90;;;;;;5070705;28;20017;-44
2022/08/20 01:04:56;;;;;;;4.75;1.92;;;14.30;99.90;;;;;;5070816;28;20040;-44
2022/08/20 01:07:31;;;;;;;4.65;1.70;;;14.20;99.90;;;;;;5070637;28;20024;-45
2022/08/20 01:09:58;;;;;;;6.47;1.52;;;14.00;99.90;;;;;;5070837;28;20386;-48
2022/08/20 01:12:25;;;;;;;6.43;1.80;;;13.90;99.90;;;;;;5069325;28;20089;-51
2022/08/20 01:14:51;;;;;;;7.10;1.88;;;13.80;99.90;;;;;;5070635;28;20056;-47
2022/08/20 01:17:22;;;;;;;7.85;2.00;;;13.80;99.90;;;;;;5070425;28;20055;-49
2022/08/20 01:19:53;;;;;;;5.53;1.70;;;13.70;99.90;;;;;;5070432;28;20017;-49
2022/08/20 01:25:29;;;;;;;;;;;13.50;99.90;;;;;;5071000;28;20040;-46
2022/08/20 01:27:55;;;;;;;5.65;2.33;;;13.40;99.90;;;;;;5074544;28;19904;-48
2022/08/20 01:30:26;;;;;;;4.82;1.92;;;13.40;99.90;;;;;;5074116;28;20463;-49
2022/08/20 01:32:52;;;;;;;7.43;1.83;;;13.40;99.90;;;;;;5073573;28;20036;-49
2022/08/20 01:35:20;;;;;;;4.88;1.90;;;13.40;99.90;;;;;;5074126;28;20024;-45
2022/08/20 01:37:46;;;;;;;6.68;1.98;;;13.40;99.90;;;;;;5074089;28;20095;-50
2022/08/20 01:40:16;;;;;;;7.18;1.98;;;13.40;99.90;;;;;;5074026;28;20103;-46
2022/08/20 01:42:45;;;;;;;7.93;1.83;;;13.30;99.90;;;;;;5073868;28;20017;-47
2022/08/20 01:45:11;;;;;;;6.05;2.28;;;13.20;99.90;;;;;;5074083;28;20028;-48
2022/08/20 01:47:37;;;;;;;5.03;1.80;;;13.20;99.90;;;;;;5074141;28;20131;-51
2022/08/20 01:50:24;;;;;;;4.60;1.95;;;13.10;99.90;;;;;;5073914;28;20550;-47
2022/08/20 01:53:11;;;;;;;4.82;1.95;;;13.00;99.90;;;;;;5073930;28;20026;-46
2022/08/20 01:55:37;;;;;;;5.82;1.88;;;13.10;99.90;;;;;;5072377;28;20076;-49
2022/08/20 01:58:03;;;;;;;4.35;2.00;;;13.00;99.90;;;;;;5073873;28;20035;-53
2022/08/20 02:00:29;;;;;;;4.57;1.90;;;13.00;99.90;;;;;;5073749;28;20025;-57
2022/08/20 02:02:55;;;;;;;6.57;1.70;;;13.00;99.90;;;;;;5073780;28;20056;-44
2022/08/20 02:05:20;;;;;;;5.97;2.83;;;13.00;99.90;;;;;;5073442;28;20068;-51
2022/08/20 02:07:47;;;;;;;5.90;2.33;;;13.00;99.90;;;;;;5073658;28;20029;-48
2022/08/20 02:10:16;;;;;;;6.93;2.10;;;13.00;99.90;;;;;;5073338;28;20491;-50
2022/08/20 02:12:42;;;;;;;4.72;1.95;;;12.90;99.90;;;;;;5073361;28;20025;-50
2022/08/20 02:15:09;;;;;;;5.45;2.05;;;13.00;99.90;;;;;;5072939;28;20502;-50
2022/08/20 02:17:35;;;;;;;5.38;1.98;;;13.00;99.90;;;;;;5067455;28;20021;-49
2022/08/20 02:20:10;;;;;;;6.63;1.95;;;12.90;99.90;;;;;;5073391;28;20483;-55
2022/08/20 02:22:46;;;;;;;3.92;1.85;;;12.90;99.90;;;;;;5073110;28;20077;-48
2022/08/20 02:25:14;;;;;;;7.13;2.10;;;12.90;99.90;;;;;;5072448;28;20060;-51
2022/08/20 02:27:42;;;;;;;5.93;2.05;;;12.90;99.90;;;;;;5072172;28;20025;-47
2022/08/20 02:30:19;;;;;;;4.03;1.98;;;12.90;99.90;;;;;;5072859;28;20020;-47
2022/08/20 02:32:46;;;;;;;6.30;1.90;;;12.90;99.90;;;;;;5073127;28;20070;-46
2022/08/20 02:35:12;;;;;;;5.35;1.98;;;12.80;99.90;;;;;;5072949;28;20107;-44
2022/08/20 02:37:40;;;;;;;6.35;2.20;;;12.80;99.90;;;;;;5071033;28;20021;-46
2022/08/20 02:40:09;;;;;;;5.15;1.80;;;12.80;99.90;;;;;;5072779;28;20112;-44
2022/08/20 02:42:35;;;;;;;6.07;1.90;;;12.70;99.90;;;;;;5072509;28;20025;-49
2022/08/20 02:45:01;;;;;;;6.97;2.10;;;12.70;99.90;;;;;;5072830;28;20055;-46
2022/08/20 02:47:27;;;;;;;5.40;2.10;;;12.70;99.90;;;;;;5072383;28;20392;-52
2022/08/20 02:49:54;;;;;;;6.97;1.88;;;12.70;99.90;;;;;;5070909;28;20029;-48
2022/08/20 02:52:20;;;;;;;5.18;2.10;;;12.70;99.90;;;;;;5072267;28;20150;-50
2022/08/20 02:54:48;;;;;;;7.15;2.20;;;12.60;99.90;;;;;;5072713;28;20153;-50
2022/08/20 02:57:19;;;;;;;4.65;2.05;;;12.60;99.90;;;;;;5072718;28;20021;-50
2022/08/20 02:59:45;;;;;;;7.75;2.03;;;12.50;99.90;;;;;;5072653;28;20392;-48
2022/08/20 03:02:13;;;;;;;3.92;1.85;;;12.50;99.90;;;;;;5072715;28;20649;-47
2022/08/20 03:04:38;;;;;;;5.93;2.10;;;12.50;99.90;;;;;;5072581;28;20494;-50
2022/08/20 03:07:05;;;;;;;5.88;1.77;;;12.50;99.90;;;;;;5072460;28;20013;-49
2022/08/20 03:09:31;;;;;;;4.70;1.92;;;12.50;99.90;;;;;;5072621;28;20060;-51
2022/08/20 03:11:57;;;;;;;5.07;1.95;;;12.40;99.90;;;;;;5072132;28;20505;-52
2022/08/20 03:14:22;;;;;;;4.53;2.13;;;12.40;99.90;;;;;;5072192;28;20034;-44
2022/08/20 03:16:48;;;;;;;3.45;1.60;;;12.40;99.90;;;;;;5071942;28;20429;-47
2022/08/20 03:19:14;;;;;;;3.63;1.70;;;12.30;99.90;;;;;;5065078;28;20029;-43
2022/08/20 03:21:40;;;;;;;5.13;2.00;;;12.30;99.90;;;;;;5072092;28;20020;-46
2022/08/20 03:24:06;;;;;;;5.22;1.90;;;12.30;99.90;;;;;;5071947;28;20048;-43
2022/08/20 03:26:32;;;;;;;5.88;1.92;;;12.30;99.90;;;;;;5070897;28;20082;-44
2022/08/20 03:28:57;;;;;;;9.05;1.95;;;12.30;99.90;;;;;;5071983;28;20029;-43
2022/08/20 03:31:23;;;;;;;7.28;2.35;;;12.30;99.90;;;;;;5070785;28;20107;-50
2022/08/20 03:33:49;;;;;;;5.10;1.90;;;12.30;99.90;;;;;;5071991;28;20052;-52
2022/08/20 03:36:14;;;;;;;5.00;1.83;;;12.20;99.90;;;;;;5071668;28;20471;-48
2022/08/20 03:38:40;;;;;;;6.35;1.92;;;12.20;99.90;;;;;;5071950;28;20027;-48
2022/08/20 03:41:06;;;;;;;7.00;2.30;;;12.10;99.90;;;;;;5071722;28;20644;-50
2022/08/20 03:43:32;;;;;;;6.10;2.03;;;12.10;99.90;;;;;;5071728;28;20048;-46
2022/08/20 03:45:58;;;;;;;4.90;1.90;;;12.10;99.90;;;;;;5071746;28;20399;-47
2022/08/20 03:48:24;;;;;;;5.10;2.10;;;12.10;99.90;;;;;;5071224;28;20021;-44
2022/08/20 03:50:50;;;;;;;4.65;1.80;;;12.10;99.90;;;;;;5071698;28;20028;-50
2022/08/20 03:53:17;;;;;;;7.00;2.30;;;12.00;99.90;;;;;;5071588;28;20021;-45
2022/08/20 03:55:45;;;;;;;4.78;2.35;;;12.10;99.90;;;;;;5071653;28;20032;-49
2022/08/20 03:58:12;;;;;;;6.78;1.90;;;12.00;99.90;;;;;;5071596;28;20036;-55
2022/08/20 04:00:45;;;;;;;4.65;1.90;;;12.00;99.90;;;;;;5071600;28;20016;-43
2022/08/20 04:03:11;;;;;;;7.95;1.95;;;12.00;99.90;;;;;;5070735;28;20032;-47
2022/08/20 04:05:40;;;;;;;6.07;1.92;;;12.00;99.90;;;;;;5071273;28;20021;-46
2022/08/20 04:08:11;;;;;;;;;;;12.00;99.90;;;;;;5071686;28;20387;-47
2022/08/20 04:10:37;;;;;;;3.58;1.63;;;12.00;99.90;;;;;;5071269;28;19908;-47
2022/08/20 04:13:05;;;;;;;3.80;1.85;;;12.00;99.90;;;;;;5071527;28;20032;-53
2022/08/20 04:15:33;;;;;;;6.03;1.85;;;12.00;99.90;;;;;;5071240;28;20491;-48
2022/08/20 04:17:59;;;;;;;4.50;1.88;;;12.00;99.90;;;;;;5071353;28;20082;-52
2022/08/20 04:20:26;;;;;;;3.88;1.77;;;12.00;99.90;;;;;;5071102;28;20368;-46
2022/08/20 04:22:54;;;;;;;4.47;1.70;;;12.00;99.90;;;;;;5071144;28;20028;-50
2022/08/20 04:25:20;;;;;;;6.55;2.30;;;12.00;99.90;;;;;;5071157;28;20032;-45
2022/08/20 04:27:49;;;;;;;6.53;2.13;;;12.00;99.90;;;;;;5071154;28;20422;-47
2022/08/20 04:30:16;;;;;;;3.50;1.55;;;12.00;99.90;;;;;;5070865;28;20032;-43
2022/08/20 04:32:43;;;;;;;6.93;1.77;;;11.90;99.90;;;;;;5071000;28;20109;-45
2022/08/20 04:35:14;;;;;;;5.53;2.10;;;11.90;99.90;;;;;;5066898;28;20017;-49
2022/08/20 04:37:41;;;;;;;9.32;2.00;;;11.90;99.90;;;;;;5071082;28;20021;-45
2022/08/20 04:42:58;;;;;;;4.38;1.77;;;11.80;99.90;;;;;;5070897;28;20564;-44
2022/08/20 04:45:24;;;;;;;4.03;1.85;;;11.90;99.90;;;;;;5070723;28;20029;-49
2022/08/20 04:47:50;;;;;;;6.25;2.20;;;11.80;99.90;;;;;;5070805;28;20031;-50
2022/08/20 04:50:17;;;;;;;5.05;2.05;;;11.80;99.90;;;;;;5071165;28;20025;-48
2022/08/20 04:52:43;;;;;;;4.05;1.70;;;11.80;99.90;;;;;;5070964;28;20033;-48
2022/08/20 04:55:09;;;;;;;8.15;2.00;;;11.80;99.90;;;;;;5070875;28;20562;-54
2022/08/20 04:57:39;;;;;;;6.20;1.77;;;11.80;99.90;;;;;;5067184;28;20074;-47
2022/08/20 05:00:09;;;;;;;3.53;1.60;;;11.80;99.90;;;;;;5071797;28;20055;-47
2022/08/20 05:02:34;;;;;;;5.45;2.15;;;11.80;99.90;;;;;;5074448;28;20060;-48
2022/08/20 05:05:01;;;;;;;3.08;1.50;;;11.70;99.90;;;;;;5074304;28;20075;-47
2022/08/20 05:07:26;;;;;;;3.63;1.75;;;11.70;99.90;;;;;;5074968;28;20029;-43
2022/08/20 05:09:52;;;;;;;3.45;1.60;;;11.70;99.90;;;;;;5074806;28;20476;-44
2022/08/20 05:12:18;;;;;;;2.97;1.70;;;11.70;99.90;;;;;;5074836;28;20017;-43
2022/08/20 05:14:45;;;;;;;5.95;2.20;;;11.70;99.90;;;;;;5074653;28;20099;-43
2022/08/20 05:17:13;;;;;;;3.13;1.45;;;11.70;99.90;;;;;;5074593;28;20032;-46
2022/08/20 05:19:40;;;;;;;5.65;1.70;;;11.70;99.90;;;;;;5074801;28;20029;-47
2022/08/20 05:22:06;;;;;;;3.97;1.90;;;11.70;99.90;;;;;;5074681;28;20025;-46
2022/08/20 05:24:32;;;;;;;5.05;2.10;;;11.60;99.90;;;;;;5074319;28;20044;-57
2022/08/20 05:27:01;;;;;;;4.80;2.00;;;11.70;99.90;;;;;;5074410;28;20031;-56
2022/08/20 05:29:27;;;;;;;5.50;1.90;;;11.70;99.90;;;;;;5074066;28;20518;-59
2022/08/20 05:31:55;;;;;;;5.32;1.90;;;11.70;99.90;;;;;;5073168;28;20031;-50
2022/08/20 05:34:21;;;;;;;3.35;1.60;;;11.70;99.90;;;;;;5074433;28;20539;-57
2022/08/20 05:36:50;;;;;;;3.95;1.63;;;11.80;99.90;;;;;;5074377;28;20112;-43
2022/08/20 05:39:17;;;;;;;4.07;1.77;;;11.80;99.90;;;;;;5074301;28;20016;-50
2022/08/20 05:41:44;;;;;;;6.47;1.70;;;11.80;99.90;;;;;;5074219;28;20119;-43
2022/08/20 05:44:12;;;;;;;3.75;1.90;;;11.90;99.90;;;;;;5073917;28;20162;-43
2022/08/20 05:46:39;;;;;;;5.05;1.88;;;12.00;99.90;;;;;;5074355;28;20016;-47
2022/08/20 05:49:10;;;;;;;6.05;1.75;;;12.00;99.90;;;;;;5073769;28;20506;-44
2022/08/20 05:51:36;;;;;;;8.00;2.17;;;12.10;99.90;;;;;;5073878;28;20048;-50
2022/08/20 05:54:03;;;;;;;4.82;1.90;;;12.20;99.90;;;;;;5073714;28;20498;-54
2022/08/20 05:56:30;;;;;;;5.88;1.90;;;12.30;99.90;;;;;;5073588;28;20023;-43
2022/08/20 05:58:56;;;;;;;5.28;1.83;;;12.30;99.90;;;;;;5074019;28;20040;-49
2022/08/20 06:01:22;;;;;;;6.32;2.13;;;12.40;99.90;;;;;;5070065;28;20028;-46
2022/08/20 06:06:33;;;;;;;5.22;1.95;;;12.50;99.90;;;;;;5059098;28;20503;-46
2022/08/20 06:08:58;;;;;;;5.90;1.65;;;12.50;99.90;;;;;;5073480;28;20017;-44
2022/08/20 06:11:24;;;;;;;4.80;1.88;;;12.60;99.90;;;;;;5061900;28;20044;-47
2022/08/20 06:13:50;;;;;;;6.03;1.80;;;12.70;99.90;;;;;;5067394;28;20033;-45
2022/08/20 06:16:15;;;;;;;7.13;1.90;;;12.70;99.90;;;;;;5072376;28;20071;-47
2022/08/20 06:18:41;;;;;;;4.47;1.67;;;12.80;99.90;;;;;;5071059;28;20028;-44
2022/08/20 06:21:07;;;;;;;6.18;1.90;;;12.90;99.90;;;;;;5073488;28;20021;-43
2022/08/20 06:23:33;;;;;;;5.70;1.63;;;13.10;99.90;;;;;;5073007;28;20024;-44
2022/08/20 06:25:58;;;;;;;7.75;1.80;;;13.20;99.90;;;;;;5073156;28;20024;-44
2022/08/20 06:28:24;;;;;;;3.83;1.55;;;13.40;99.90;;;;;;5073022;28;20116;-47
2022/08/20 06:30:50;;;;;;;6.43;2.08;;;13.70;99.90;;;;;;5072525;28;20037;-46
2022/08/20 06:33:15;;;;;;;6.45;1.90;;;14.50;99.90;;;;;;5073502;28;20112;-49
2022/08/20 06:35:43;;;;;;;4.38;1.38;;;15.70;99.90;;;;;;5073919;28;20037;-46
2022/08/20 06:38:11;;;;;;;3.90;1.30;;;17.00;99.90;;;;;;5061724;28;20033;-46
2022/08/20 06:40:38;;;;;;;4.13;1.40;;;18.30;99.90;;;;;;5065449;28;20608;-46
2022/08/20 06:43:04;;;;;;;4.78;1.50;;;19.40;99.90;;;;;;5069726;28;20041;-44
2022/08/20 06:45:31;;;;;;;5.20;1.30;;;20.40;98.90;;;;;;5065291;28;20446;-50
2022/08/20 06:48:00;;;;;;;6.70;1.45;;;21.40;96.70;;;;;;5073236;28;20028;-49
2022/08/20 06:50:32;;;;;;;5.38;1.52;;;22.00;94.80;;;;;;5065027;28;20028;-44
2022/08/20 06:52:58;;;;;;;6.18;1.30;;;22.70;94.10;;;;;;5069165;28;20441;-51
2022/08/20 06:55:24;;;;;;;6.25;1.42;;;23.20;92.40;;;;;;5074406;28;20078;-46
2022/08/20 06:57:58;;;;;;;6.28;1.52;;;23.70;91.40;;;;;;5072705;28;20050;-53
2022/08/20 07:00:24;;;;;;;7.22;1.30;;;24.00;90.20;;;;;;5065819;28;20050;-48
2022/08/20 07:02:49;;;;;;;3.05;1.00;;;24.20;87.90;;;;;;5072348;28;20112;-48
2022/08/20 07:05:15;;;;;;;4.15;1.27;;;24.20;89.70;;;;;;5072180;28;20535;-48
2022/08/20 07:07:45;;;;;;;4.15;1.35;;;24.40;88.40;;;;;;5072364;28;20468;-46
2022/08/20 07:10:13;;;;;;;5.30;1.10;;;24.80;89.10;;;;;;5071960;28;20039;-49
2022/08/20 07:12:38;;;;;;;6.65;1.50;;;25.10;88.70;;;;;;5072279;28;20055;-48
2022/08/20 07:15:06;;;;;;;5.03;1.52;;;25.60;87.20;;;;;;5076044;28;20051;-49
2022/08/20 07:17:32;;;;;;;6.18;1.60;;;26.00;85.30;;;;;;5072264;28;20024;-49
2022/08/20 07:20:02;;;;;;;4.75;1.48;;;26.40;83.00;;;;;;5068881;28;20043;-46
2022/08/20 07:22:27;;;;;;;5.65;1.15;;;26.60;82.80;;;;;;5070763;28;20082;-49
2022/08/20 07:24:53;;;;;;;6.75;1.42;;;26.80;81.70;;;;;;5069763;28;20044;-48
2022/08/20 07:27:21;;;;;;;5.20;1.35;;;27.20;80.30;;;;;;5071857;28;20021;-48
2022/08/20 07:32:35;;;;;;;7.10;1.50;;;28.30;76.00;;;;;;5071421;28;20498;-47
2022/08/20 07:35:04;;;;;;;5.63;1.45;;;28.50;74.20;;;;;;5071634;28;20035;-49
2022/08/20 07:37:29;;;;;;;4.18;1.40;;;28.80;74.30;;;;;;5070371;28;20027;-51
2022/08/20 07:39:55;;;;;;;4.15;1.15;;;29.20;74.60;;;;;;5069141;28;20116;-47
2022/08/20 07:42:21;;;;;;;6.35;1.50;;;29.40;71.10;;;;;;5068685;28;20031;-53
2022/08/20 07:44:47;;;;;;;7.45;1.58;;;29.50;72.10;;;;;;5069092;28;20065;-44
2022/08/20 07:47:16;;;;;;;7.13;1.60;;;29.50;69.30;;;;;;5069627;28;20070;-44
2022/08/20 07:49:42;;;;;;;6.15;1.20;;;29.00;68.40;;;;;;5069922;28;20039;-49
2022/08/20 07:52:08;;;;;;;7.20;1.73;;;28.60;70.40;;;;;;5070316;28;20021;-48
2022/08/20 07:54:36;;;;;;;5.15;1.50;;;28.60;70.00;;;;;;5071326;28;20041;-46
2022/08/20 07:57:02;;;;;;;;;;;28.20;71.50;;;;;;5071796;28;20025;-49
2022/08/20 07:59:29;;;;;;;3.58;1.30;;;28.20;71.80;;;;;;5071408;28;19905;-46
2022/08/20 08:01:55;;;;;;;8.32;1.40;;;28.40;71.70;;;;;;5071368;28;20056;-49
2022/08/20 08:04:23;;;;;;;3.90;1.42;;;28.90;71.40;;;;;;5071547;28;20109;-48
2022/08/20 08:06:49;;;;;;;5.15;1.40;;;29.20;68.40;;;;;;5071229;28;20466;-52
2022/08/20 08:09:15;;;;;;;6.13;1.17;;;29.70;69.00;;;;;;5071482;28;20471;-48
2022/08/20 08:11:56;;;;;;;6.20;1.80;;;30.10;67.00;;;;;;5071270;28;20070;-51
2022/08/20 08:14:26;;;;;;;3.95;1.15;;;30.10;65.70;;;;;;5071208;28;20452;-50
2022/08/20 08:16:58;;;;;;;5.40;1.30;;;30.70;65.20;;;;;;5070659;28;20125;-47
2022/08/20 08:19:26;;;;;;;5.57;1.38;;;31.20;65.30;;;;;;5071104;28;20028;-53
2022/08/20 08:21:52;;;;;;;7.30;1.42;;;31.50;62.90;;;;;;5071231;28;20032;-49
2022/08/20 08:24:18;;;;;;;5.90;1.42;;;31.50;60.90;;;;;;5071294;28;20021;-48
2022/08/20 08:26:43;;;;;;;6.00;1.30;;;31.60;59.40;;;;;;5070903;28;20448;-49
2022/08/20 08:29:11;;;;;;;5.00;1.60;;;31.70;59.80;;;;;;5069980;28;20051;-56
2022/08/20 08:31:37;;;;;;;2.87;1.00;;;31.50;59.50;;;;;;5071120;28;20067;-50
2022/08/20 08:34:02;;;;;;;4.63;1.20;;;31.90;58.00;;;;;;5070924;28;20399;-46
2022/08/20 08:36:29;;;;;;;4.40;1.02;;;32.30;54.10;;;;;;5070723;28;20032;-51
2022/08/20 08:38:55;;;;;;;5.85;1.20;;;32.20;55.60;;;;;;5070889;28;20116;-55
2022/08/20 08:41:38;;;;;;;3.17;0.95;;;32.20;54.00;;;;;;5071184;28;20036;-52
2022/08/20 08:44:04;;;;;;;4.80;1.02;;;32.80;51.80;;;;;;5070736;28;20125;-49
2022/08/20 08:46:39;;;;;;;5.03;1.17;;;33.00;53.80;;;;;;5070563;28;20036;-54
2022/08/20 08:49:05;;;;;;;4.65;1.20;;;33.30;52.10;;;;;;5070372;28;20078;-47
2022/08/20 08:51:39;;;;;;;4.75;1.10;;;33.60;52.50;;;;;;5070582;28;20099;-49
2022/08/20 08:54:07;;;;;;;4.47;1.20;;;34.30;49.70;;;;;;5070788;28;20115;-48
2022/08/20 08:56:33;;;;;;;4.80;1.30;;;33.90;48.50;;;;;;5070913;28;20021;-53
2022/08/20 08:59:06;;;;;;;4.20;1.35;;;33.10;50.00;;;;;;5070842;28;20048;-47
2022/08/20 09:01:38;;;;;;;3.25;1.00;;;32.80;49.50;;;;;;5070668;28;20041;-49
2022/08/20 09:04:04;;;;;;;4.28;0.80;;;33.10;50.70;;;;;;5070720;28;20576;-53
2022/08/20 09:06:30;;;;;;;4.30;1.40;;;33.10;48.30;;;;;;5070654;28;20027;-45
2022/08/20 09:09:01;;;;;;;4.40;1.33;;;32.20;49.60;;;;;;5070598;28;20063;-45
2022/08/20 09:11:28;;;;;;;4.43;1.35;;;30.90;50.10;;;;;;5070643;28;20025;-46
2022/08/20 09:13:54;;;;;;;6.57;1.27;;;29.50;54.80;;;;;;5070618;28;20056;-47
2022/08/20 09:16:24;;;;;;;3.35;1.00;;;29.20;57.10;;;;;;5070298;28;20021;-48
2022/08/20 09:18:51;;;;;;;3.20;0.85;;;29.60;57.50;;;;;;5070380;28;20486;-44
2022/08/20 09:21:17;;;;;;;4.10;1.23;;;29.50;55.20;;;;;;5070583;28;20025;-48
2022/08/20 09:23:43;;;;;;;3.17;0.85;;;29.80;52.70;;;;;;5070390;28;20384;-50
2022/08/20 09:26:09;;;;;;;3.83;0.93;;;29.50;55.10;;;;;;5070436;28;20051;-44
2022/08/20 09:28:35;;;;;;;4.13;1.10;;;29.80;54.30;;;;;;5070973;28;20047;-49
2022/08/20 09:31:02;;;;;;;5.60;1.08;;;30.00;55.60;;;;;;5070478;28;20024;-53
2022/08/20 09:33:28;;;;;;;2.97;1.00;;;30.60;52.90;;;;;;5070585;28;20431;-44
2022/08/20 09:35:53;;;;;;;3.33;0.95;;;30.90;51.10;;;;;;5070165;28;20036;-51
2022/08/20 09:38:19;;;;;;;5.53;0.90;;;30.30;51.50;;;;;;5070599;28;20040;-48
2022/08/20 09:40:45;;;;;;;3.00;0.88;;;30.40;52.50;;;;;;5070123;28;20032;-46
2022/08/20 09:43:11;;;;;;;4.30;0.95;;;30.10;52.20;;;;;;5070065;28;20086;-49
2022/08/20 09:45:37;;;;;;;3.67;0.80;;;29.30;52.90;;;;;;5069743;28;20041;-51
2022/08/20 09:48:03;;;;;;;3.97;1.20;;;29.70;55.90;;;;;;5071008;28;20033;-51
2022/08/20 09:50:31;;;;;;;3.17;0.80;;;29.80;52.80;;;;;;5073952;28;20031;-52
2022/08/20 09:52:58;;;;;;;2.20;0.75;;;29.70;55.30;;;;;;5074177;28;20247;-55
2022/08/20 09:55:32;;;;;;;4.05;1.00;;;29.50;53.20;;;;;;5073840;28;20179;-55
2022/08/20 09:57:59;;;;;;;3.58;0.80;;;28.50;55.20;;;;;;5073530;28;20558;-54
2022/08/20 10:00:25;;;;;;;6.47;0.80;;;28.00;55.10;;;;;;5073950;28;20121;-47
2022/08/20 10:02:51;;;;;;;3.33;0.75;;;28.50;55.70;;;;;;5073700;28;20471;-48
2022/08/20 10:05:17;;;;;;;3.30;1.10;;;29.10;56.40;;;;;;5073580;28;20021;-51
2022/08/20 10:07:42;;;;;;;4.43;1.13;;;29.80;53.40;;;;;;5073687;28;20032;-48
2022/08/20 10:10:11;;;;;;;3.85;1.00;;;30.30;52.80;;;;;;5073944;28;20383;-49
2022/08/20 10:12:37;;;;;;;7.45;1.20;;;30.30;51.50;;;;;;5073634;28;20536;-51
2022/08/20 10:15:03;;;;;;;4.70;1.15;;;29.70;51.60;;;;;;5073298;28;20056;-54
2022/08/20 10:17:29;;;;;;;5.32;0.90;;;28.80;54.10;;;;;;5073468;28;20027;-50
2022/08/20 10:19:55;;;;;;;3.42;1.08;;;27.80;58.80;;;;;;5072968;28;20119;-47
2022/08/20 10:22:20;;;;;;;5.97;1.17;;;27.50;60.10;;;;;;5073373;28;20020;-46
2022/08/20 10:24:47;;;;;;;5.03;0.90;;;27.30;57.80;;;;;;5073230;28;20120;-56
2022/08/20 10:27:12;;;;;;;4.75;1.13;;;26.80;60.20;;;;;;5072958;28;20020;-45
2022/08/20 10:29:38;;;;;;;4.47;1.17;;;26.40;60.80;;;;;;5073319;28;20059;-53
2022/08/20 10:32:13;;;;;;;4.53;1.02;;;26.20;61.50;;;;;;5073081;28;20021;-52
2022/08/20 10:34:40;;;;;;;3.80;1.02;;;26.10;62.10;;;;;;5072983;28;20029;-55
2022/08/20 10:37:05;;;;;;;5.35;1.30;;;27.00;66.90;;;;;;5072979;28;20059;-49
2022/08/20 10:39:31;;;;;;;3.70;0.80;;;28.20;63.80;;;;;;5073123;28;20059;-50
2022/08/20 10:41:57;;;;;;;4.90;1.10;;;29.00;59.30;;;;;;5073011;28;20028;-44
2022/08/20 10:44:22;;;;;;;5.57;1.52;;;28.80;58.00;;;;;;5072952;28;20044;-52
2022/08/20 10:46:48;;;;;;;3.15;0.80;;;28.20;59.10;;;;;;5073029;28;20356;-44
2022/08/20 10:49:14;;;;;;;4.68;1.20;;;27.60;60.00;;;;;;5072931;28;20526;-45
2022/08/20 10:51:39;;;;;;;5.95;1.25;;;27.00;61.10;;;;;;5072937;28;20502;-50
2022/08/20 10:54:05;;;;;;;4.97;1.30;;;26.80;63.90;;;;;;5072599;28;20502;-49
2022/08/20 10:56:31;;;;;;;4.55;0.82;;;27.00;65.70;;;;;;5072039;28;20296;-52
2022/08/20 10:58:56;;;;;;;5.47;1.02;;;27.50;63.80;;;;;;5072578;28;20111;-44
2022/08/20 11:01:22;;;;;;;9.55;1.58;;;26.80;63.00;;;;;;5072400;28;20052;-51
2022/08/20 11:03:48;;;;;;;3.90;0.85;;;26.20;65.80;;;;;;5072682;28;20440;-52
2022/08/20 11:06:13;;;;;;;4.63;1.00;;;25.70;66.50;;;;;;5072682;28;20028;-49
2022/08/20 11:08:39;;;;;;;4.63;1.05;;;25.10;68.80;;;;;;5069489;28;20032;-54
2022/08/20 11:11:05;;;;;;;4.35;1.15;;;25.00;71.00;;;;;;5071654;28;20122;-49
2022/08/20 11:13:33;;;;;;;5.78;1.00;;;25.20;72.60;;;;;;5062142;28;20054;-47
2022/08/20 11:16:00;;;;;;;4.15;1.25;;;25.80;70.70;;;;;;5059264;28;20037;-45
2022/08/20 11:18:26;;;;;;;5.72;1.58;;;26.90;69.40;;;;;;5056595;28;20025;-48
2022/08/20 11:20:51;;;;;;;4.63;1.27;;;27.90;66.20;;;;;;5053644;28;20070;-43
2022/08/20 11:23:17;;;;;;;5.07;1.27;;;27.80;64.40;;;;;;5053327;28;20021;-44
2022/08/20 11:25:43;;;;;;;6.05;1.10;;;27.20;64.90;;;;;;5055874;28;20036;-46
2022/08/20 11:28:09;;;;;;;9.60;1.30;;;27.00;67.10;;;;;;5071632;28;20185;-47
2022/08/20 11:30:36;;;;;;;5.00;1.48;;;26.50;66.30;;;;;;5071352;28;20024;-46
2022/08/20 11:33:03;;;;;;;4.72;1.08;;;26.20;67.90;;;;;;5071399;28;20029;-52
2022/08/20 11:35:32;;;;;;;3.17;0.98;;;25.80;67.40;;;;;;5071210;28;20025;-50
2022/08/20 11:37:58;;;;;;;7.35;1.27;;;25.60;71.10;;;;;;5071284;28;20056;-46
2022/08/20 11:40:25;;;;;;;6.40;1.20;;;26.40;73.20;;;;;;5071361;28;20021;-47
2022/08/20 11:42:51;;;;;;;3.65;1.17;;;26.70;68.50;;;;;;5068502;28;20094;-49
2022/08/20 11:45:17;;;;;;;5.72;1.25;;;26.50;70.50;;;;;;5070935;28;20025;-45
2022/08/20 11:47:42;;;;;;;5.50;1.50;;;25.90;70.00;;;;;;5071021;28;20391;-49
2022/08/20 11:50:15;;;;;;;5.35;1.23;;;25.50;73.90;;;;;;5070908;28;20024;-52
2022/08/20 11:52:41;;;;;;;8.25;1.42;;;25.40;74.40;;;;;;5070819;28;20104;-52
2022/08/20 11:55:09;;;;;;;8.75;2.53;;;25.20;75.10;;;;;;5069326;28;20467;-46
2022/08/20 11:57:37;;;;;;;9.02;1.45;;;25.10;74.10;;;;;;5070703;28;20108;-51
2022/08/20 12:00:11;;;;;;;6.93;1.33;;;25.10;78.40;;;;;;5070808;28;20035;-51
2022/08/20 12:02:37;;;;;;;6.30;1.02;;;25.60;77.30;;;;;;5069349;28;20027;-51
2022/08/20 12:05:03;;;;;;;8.48;1.50;;;26.50;74.80;;;;;;5054680;28;20024;-52
2022/08/20 12:07:29;;;;;;;6.75;1.60;;;27.20;72.30;;;;;;5052576;28;20021;-45
2022/08/20 12:09:55;;;;;;;6.10;1.27;;;26.80;70.10;;;;;;5070394;28;20111;-46
2022/08/20 12:12:24;;;;;;;7.93;1.48;;;26.10;71.90;;;;;;5071404;28;20020;-45
2022/08/20 12:14:52;;;;;;;6.25;1.05;;;26.00;75.70;;;;;;5070794;28;20024;-43
2022/08/20 12:17:25;;;;;;;7.78;1.52;;;26.20;72.30;;;;;;5070697;28;20507;-51
2022/08/20 12:19:53;;;;;;;6.57;1.30;;;26.20;75.00;;;;;;5070634;28;20433;-52
2022/08/20 12:22:19;;;;;;;6.93;1.00;;;26.20;73.40;;;;;;5071112;28;20020;-44
2022/08/20 12:24:45;;;;;;;8.88;1.65;;;26.70;74.60;;;;;;5065210;28;20594;-47
2022/08/20 12:27:32;;;;;;;4.95;1.35;;;26.30;73.50;;;;;;5070628;28;20074;-45
2022/08/20 12:30:00;;;;;;;9.50;1.20;;;25.40;75.60;;;;;;5070754;28;20086;-49
2022/08/20 12:32:28;;;;;;;5.30;1.20;;;25.10;76.10;;;;;;5064611;28;20035;-50
2022/08/20 12:34:54;;;;;;;7.53;1.38;;;25.00;78.10;;;;;;5070412;28;20086;-45
2022/08/20 12:37:26;;;;;;;5.63;1.02;;;24.80;77.60;;;;;;5070290;28;20024;-48
2022/08/20 12:39:54;;;;;;;4.43;1.15;;;24.80;77.50;;;;;;5070263;28;20025;-53
2022/08/20 12:42:20;;;;;;;5.03;0.95;;;24.60;76.10;;;;;;5068826;28;20027;-44
2022/08/20 12:44:46;;;;;;;4.68;1.10;;;24.60;77.50;;;;;;5069488;28;20041;-51
2022/08/20 12:47:19;;;;;;;7.93;1.50;;;24.80;76.70;;;;;;5069498;28;20040;-48
2022/08/20 12:49:49;;;;;;;8.55;1.50;;;25.10;77.60;;;;;;5070707;28;20020;-47
2022/08/20 12:52:16;;;;;;;4.00;0.85;;;25.40;78.00;;;;;;5065953;28;20028;-45
2022/08/20 12:54:43;;;;;;;5.65;1.20;;;25.80;75.50;;;;;;5068119;28;20086;-50
2022/08/20 12:57:27;;;;;;;3.03;1.05;;;25.70;76.90;;;;;;5070765;28;20339;-50
2022/08/20 12:59:59;;;;;;;6.07;1.67;;;25.60;75.10;;;;;;5069523;28;20029;-47